sensor_id;sensor_type;location;lat;lon;timestamp;temperature;humidity
34644;DHT22;26931;43.498;-1.506;2022-10-16T00:02:09;20.20;97.90
34644;DHT22;26931;43.498;-1.506;2022-10-16T00:04:35;20.10;97.90
34644;DHT22;26931;43.498;-1.506;2022-10-16T00:07:01;20.10;98.00
34644;DHT22;26931;43.498;-1.506;2022-10-16T00:09:27;20.00;98.00
34644;DHT22;26931;43.498;-1.506;2022-10-16T00:11:53;20.00;98.00
34644;DHT22;26931;43.498;-1.506;2022-10-16T00:14:19;20.00;98.00
34644;DHT22;26931;43.498;-1.506;2022-10-16T00:16:45;20.00;98.00
34644;DHT22;26931;43.498;-1.506;2022-10-16T00:19:11;20.00;98.00
34644;DHT22;26931;43.498;-1.506;2022-10-16T00:21:41;20.00;98.00
34644;DHT22;26931;43.498;-1.506;2022-10-16T00:24:09;20.00;98.00
34644;DHT22;26931;43.498;-1.506;2022-10-16T00:26:37;20.00;98.00
34644;DHT22;26931;43.498;-1.506;2022-10-16T00:29:04;19.90;98.00
34644;DHT22;26931;43.498;-1.506;2022-10-16T00:31:30;19.80;98.00
34644;DHT22;26931;43.498;-1.506;2022-10-16T00:33:57;19.80;98.00
34644;DHT22;26931;43.498;-1.506;2022-10-16T00:36:25;19.90;98.00
34644;DHT22;26931;43.498;-1.506;2022-10-16T00:38:53;19.90;97.90
34644;DHT22;26931;43.498;-1.506;2022-10-16T00:41:21;19.80;97.80
34644;DHT22;26931;43.498;-1.506;2022-10-16T00:43:59;19.80;97.80
34644;DHT22;26931;43.498;-1.506;2022-10-16T00:46:40;19.80;97.70
34644;DHT22;26931;43.498;-1.506;2022-10-16T00:49:10;19.80;97.60
34644;DHT22;26931;43.498;-1.506;2022-10-16T00:51:46;19.90;97.60
34644;DHT22;26931;43.498;-1.506;2022-10-16T00:54:26;19.60;97.50
34644;DHT22;26931;43.498;-1.506;2022-10-16T00:56:54;19.60;97.50
34644;DHT22;26931;43.498;-1.506;2022-10-16T00:59:26;19.60;97.50
34644;DHT22;26931;43.498;-1.506;2022-10-16T01:01:53;19.60;97.50
34644;DHT22;26931;43.498;-1.506;2022-10-16T01:04:20;19.60;97.50
34644;DHT22;26931;43.498;-1.506;2022-10-16T01:09:47;19.50;97.50
34644;DHT22;26931;43.498;-1.506;2022-10-16T01:12:26;19.60;97.50
34644;DHT22;26931;43.498;-1.506;2022-10-16T01:15:20;19.50;97.50
34644;DHT22;26931;43.498;-1.506;2022-10-16T01:18:00;19.60;97.50
34644;DHT22;26931;43.498;-1.506;2022-10-16T01:20:34;19.80;97.50
34644;DHT22;26931;43.498;-1.506;2022-10-16T01:23:25;19.60;97.50
34644;DHT22;26931;43.498;-1.506;2022-10-16T01:29:03;19.50;97.40
34644;DHT22;26931;43.498;-1.506;2022-10-16T01:31:35;19.50;97.40
34644;DHT22;26931;43.498;-1.506;2022-10-16T01:34:15;19.50;97.40
34644;DHT22;26931;43.498;-1.506;2022-10-16T01:36:58;19.40;97.30
34644;DHT22;26931;43.498;-1.506;2022-10-16T01:39:30;19.40;97.40
34644;DHT22;26931;43.498;-1.506;2022-10-16T01:42:21;19.30;97.40
34644;DHT22;26931;43.498;-1.506;2022-10-16T01:44:50;19.60;97.50
34644;DHT22;26931;43.498;-1.506;2022-10-16T01:47:17;19.30;97.40
34644;DHT22;26931;43.498;-1.506;2022-10-16T01:49:46;19.30;97.40
34644;DHT22;26931;43.498;-1.506;2022-10-16T01:52:19;19.40;97.50
34644;DHT22;26931;43.498;-1.506;2022-10-16T01:54:50;19.30;97.30
34644;DHT22;26931;43.498;-1.506;2022-10-16T01:57:20;19.30;97.40
34644;DHT22;26931;43.498;-1.506;2022-10-16T01:59:50;19.30;97.40
34644;DHT22;26931;43.498;-1.506;2022-10-16T02:02:19;19.30;97.40
34644;DHT22;26931;43.498;-1.506;2022-10-16T02:04:49;19.20;97.40
34644;DHT22;26931;43.498;-1.506;2022-10-16T02:07:17;19.30;97.40
34644;DHT22;26931;43.498;-1.506;2022-10-16T02:09:43;19.20;97.30
34644;DHT22;26931;43.498;-1.506;2022-10-16T02:12:13;19.20;97.40
34644;DHT22;26931;43.498;-1.506;2022-10-16T02:14:41;19.20;97.50
34644;DHT22;26931;43.498;-1.506;2022-10-16T02:17:17;19.10;97.50
34644;DHT22;26931;43.498;-1.506;2022-10-16T02:19:44;19.10;97.50
34644;DHT22;26931;43.498;-1.506;2022-10-16T02:22:35;19.20;97.40
34644;DHT22;26931;43.498;-1.506;2022-10-16T02:25:13;19.10;97.50
34644;DHT22;26931;43.498;-1.506;2022-10-16T02:30:41;19.20;97.40
34644;DHT22;26931;43.498;-1.506;2022-10-16T02:33:10;19.20;97.40
34644;DHT22;26931;43.498;-1.506;2022-10-16T02:35:40;19.20;97.40
34644;DHT22;26931;43.498;-1.506;2022-10-16T02:38:06;19.20;97.40
34644;DHT22;26931;43.498;-1.506;2022-10-16T02:40:33;19.10;97.30
34644;DHT22;26931;43.498;-1.506;2022-10-16T02:42:59;19.20;97.30
34644;DHT22;26931;43.498;-1.506;2022-10-16T02:45:25;19.10;97.20
34644;DHT22;26931;43.498;-1.506;2022-10-16T02:47:51;19.10;97.20
34644;DHT22;26931;43.498;-1.506;2022-10-16T02:50:17;19.20;97.30
34644;DHT22;26931;43.498;-1.506;2022-10-16T02:52:43;19.20;97.30
34644;DHT22;26931;43.498;-1.506;2022-10-16T02:55:09;19.00;97.30
34644;DHT22;26931;43.498;-1.506;2022-10-16T02:57:36;19.00;97.30
34644;DHT22;26931;43.498;-1.506;2022-10-16T03:00:04;19.00;97.20
34644;DHT22;26931;43.498;-1.506;2022-10-16T03:02:33;19.00;97.30
34644;DHT22;26931;43.498;-1.506;2022-10-16T03:04:59;19.10;97.30
34644;DHT22;26931;43.498;-1.506;2022-10-16T03:07:25;19.00;97.20
34644;DHT22;26931;43.498;-1.506;2022-10-16T03:09:51;19.00;97.20
34644;DHT22;26931;43.498;-1.506;2022-10-16T03:12:17;19.10;97.20
34644;DHT22;26931;43.498;-1.506;2022-10-16T03:14:43;19.10;97.20
34644;DHT22;26931;43.498;-1.506;2022-10-16T03:17:09;19.10;97.20
34644;DHT22;26931;43.498;-1.506;2022-10-16T03:19:35;19.00;97.10
34644;DHT22;26931;43.498;-1.506;2022-10-16T03:22:01;19.00;97.10
34644;DHT22;26931;43.498;-1.506;2022-10-16T03:24:27;19.00;97.10
34644;DHT22;26931;43.498;-1.506;2022-10-16T03:26:53;19.00;97.10
34644;DHT22;26931;43.498;-1.506;2022-10-16T03:29:19;19.00;97.10
34644;DHT22;26931;43.498;-1.506;2022-10-16T03:31:45;19.00;97.10
34644;DHT22;26931;43.498;-1.506;2022-10-16T03:34:11;19.00;97.10
34644;DHT22;26931;43.498;-1.506;2022-10-16T03:36:36;18.90;97.00
34644;DHT22;26931;43.498;-1.506;2022-10-16T03:39:03;18.80;97.10
34644;DHT22;26931;43.498;-1.506;2022-10-16T03:41:29;18.70;97.10
34644;DHT22;26931;43.498;-1.506;2022-10-16T03:43:55;18.80;97.10
34644;DHT22;26931;43.498;-1.506;2022-10-16T03:46:21;18.80;97.20
34644;DHT22;26931;43.498;-1.506;2022-10-16T03:48:47;18.80;97.20
34644;DHT22;26931;43.498;-1.506;2022-10-16T03:51:13;19.00;97.20
34644;DHT22;26931;43.498;-1.506;2022-10-16T03:53:39;18.80;97.10
34644;DHT22;26931;43.498;-1.506;2022-10-16T03:56:05;18.80;97.10
34644;DHT22;26931;43.498;-1.506;2022-10-16T03:58:31;18.90;97.20
34644;DHT22;26931;43.498;-1.506;2022-10-16T04:00:57;18.90;97.20
34644;DHT22;26931;43.498;-1.506;2022-10-16T04:03:23;18.90;97.10
34644;DHT22;26931;43.498;-1.506;2022-10-16T04:05:49;18.90;97.10
34644;DHT22;26931;43.498;-1.506;2022-10-16T04:08:15;18.80;97.00
34644;DHT22;26931;43.498;-1.506;2022-10-16T04:10:44;18.80;97.10
34644;DHT22;26931;43.498;-1.506;2022-10-16T04:13:11;18.90;97.10
34644;DHT22;26931;43.498;-1.506;2022-10-16T04:15:37;18.90;97.00
34644;DHT22;26931;43.498;-1.506;2022-10-16T04:18:03;18.90;97.00
34644;DHT22;26931;43.498;-1.506;2022-10-16T04:20:29;18.80;97.00
34644;DHT22;26931;43.498;-1.506;2022-10-16T04:22:55;18.80;97.00
34644;DHT22;26931;43.498;-1.506;2022-10-16T04:25:22;18.80;97.00
34644;DHT22;26931;43.498;-1.506;2022-10-16T04:27:47;19.10;97.00
34644;DHT22;26931;43.498;-1.506;2022-10-16T04:30:13;18.80;97.10
34644;DHT22;26931;43.498;-1.506;2022-10-16T04:32:39;18.80;97.10
34644;DHT22;26931;43.498;-1.506;2022-10-16T04:35:07;18.80;97.10
34644;DHT22;26931;43.498;-1.506;2022-10-16T04:37:33;18.80;97.10
34644;DHT22;26931;43.498;-1.506;2022-10-16T04:39:59;18.80;97.10
34644;DHT22;26931;43.498;-1.506;2022-10-16T04:42:24;18.70;97.10
34644;DHT22;26931;43.498;-1.506;2022-10-16T04:44:51;18.70;97.10
34644;DHT22;26931;43.498;-1.506;2022-10-16T04:47:17;18.70;97.10
34644;DHT22;26931;43.498;-1.506;2022-10-16T04:49:43;18.70;97.20
34644;DHT22;26931;43.498;-1.506;2022-10-16T04:52:08;18.70;97.30
34644;DHT22;26931;43.498;-1.506;2022-10-16T04:54:35;18.80;97.30
34644;DHT22;26931;43.498;-1.506;2022-10-16T04:57:01;18.80;97.30
34644;DHT22;26931;43.498;-1.506;2022-10-16T04:59:27;18.70;97.30
34644;DHT22;26931;43.498;-1.506;2022-10-16T05:01:53;18.80;97.40
34644;DHT22;26931;43.498;-1.506;2022-10-16T05:04:18;18.80;97.40
34644;DHT22;26931;43.498;-1.506;2022-10-16T05:06:44;18.70;97.50
34644;DHT22;26931;43.498;-1.506;2022-10-16T05:09:10;18.80;97.50
34644;DHT22;26931;43.498;-1.506;2022-10-16T05:11:36;18.70;97.50
34644;DHT22;26931;43.498;-1.506;2022-10-16T05:14:01;18.70;97.50
34644;DHT22;26931;43.498;-1.506;2022-10-16T05:16:27;18.80;97.50
34644;DHT22;26931;43.498;-1.506;2022-10-16T05:18:53;18.70;97.60
34644;DHT22;26931;43.498;-1.506;2022-10-16T05:21:20;18.70;97.60
34644;DHT22;26931;43.498;-1.506;2022-10-16T05:23:46;18.70;97.60
34644;DHT22;26931;43.498;-1.506;2022-10-16T05:26:12;18.80;97.60
34644;DHT22;26931;43.498;-1.506;2022-10-16T05:28:37;18.70;97.50
34644;DHT22;26931;43.498;-1.506;2022-10-16T05:31:08;18.70;97.50
34644;DHT22;26931;43.498;-1.506;2022-10-16T05:33:34;18.70;97.60
34644;DHT22;26931;43.498;-1.506;2022-10-16T05:36:05;18.60;97.60
34644;DHT22;26931;43.498;-1.506;2022-10-16T05:38:34;18.60;97.60
34644;DHT22;26931;43.498;-1.506;2022-10-16T05:41:01;18.50;97.60
34644;DHT22;26931;43.498;-1.506;2022-10-16T05:43:28;18.60;97.60
34644;DHT22;26931;43.498;-1.506;2022-10-16T05:46:02;18.60;97.60
34644;DHT22;26931;43.498;-1.506;2022-10-16T05:48:28;18.60;97.60
34644;DHT22;26931;43.498;-1.506;2022-10-16T05:51:06;18.40;97.50
34644;DHT22;26931;43.498;-1.506;2022-10-16T05:53:34;18.60;97.60
34644;DHT22;26931;43.498;-1.506;2022-10-16T05:56:01;18.40;97.60
34644;DHT22;26931;43.498;-1.506;2022-10-16T05:58:33;18.40;97.70
34644;DHT22;26931;43.498;-1.506;2022-10-16T06:01:11;18.70;97.80
34644;DHT22;26931;43.498;-1.506;2022-10-16T06:03:37;18.40;97.70
34644;DHT22;26931;43.498;-1.506;2022-10-16T06:06:13;18.40;97.70
34644;DHT22;26931;43.498;-1.506;2022-10-16T06:08:41;18.60;97.80
34644;DHT22;26931;43.498;-1.506;2022-10-16T06:11:10;18.40;97.70
34644;DHT22;26931;43.498;-1.506;2022-10-16T06:13:36;18.30;97.70
34644;DHT22;26931;43.498;-1.506;2022-10-16T06:16:03;18.40;97.70
34644;DHT22;26931;43.498;-1.506;2022-10-16T06:18:30;18.30;97.70
34644;DHT22;26931;43.498;-1.506;2022-10-16T06:20:56;18.50;97.70
34644;DHT22;26931;43.498;-1.506;2022-10-16T06:23:23;18.30;97.60
34644;DHT22;26931;43.498;-1.506;2022-10-16T06:25:49;18.50;97.70
34644;DHT22;26931;43.498;-1.506;2022-10-16T06:28:16;18.40;97.60
34644;DHT22;26931;43.498;-1.506;2022-10-16T06:30:42;18.30;97.60
34644;DHT22;26931;43.498;-1.506;2022-10-16T06:33:11;18.30;97.40
34644;DHT22;26931;43.498;-1.506;2022-10-16T06:35:37;18.30;97.40
34644;DHT22;26931;43.498;-1.506;2022-10-16T06:38:03;18.10;97.50
34644;DHT22;26931;43.498;-1.506;2022-10-16T06:40:29;18.00;97.60
34644;DHT22;26931;43.498;-1.506;2022-10-16T06:42:56;17.90;97.70
34644;DHT22;26931;43.498;-1.506;2022-10-16T06:45:22;18.00;97.70
34644;DHT22;26931;43.498;-1.506;2022-10-16T06:47:48;17.90;97.70
34644;DHT22;26931;43.498;-1.506;2022-10-16T06:50:14;17.90;97.70
34644;DHT22;26931;43.498;-1.506;2022-10-16T06:52:39;17.80;97.80
34644;DHT22;26931;43.498;-1.506;2022-10-16T06:55:06;17.80;97.90
34644;DHT22;26931;43.498;-1.506;2022-10-16T06:57:32;17.70;97.90
34644;DHT22;26931;43.498;-1.506;2022-10-16T06:59:58;17.80;97.90
34644;DHT22;26931;43.498;-1.506;2022-10-16T07:02:24;17.90;97.90
34644;DHT22;26931;43.498;-1.506;2022-10-16T07:04:50;17.90;97.80
34644;DHT22;26931;43.498;-1.506;2022-10-16T07:07:16;17.90;97.70
34644;DHT22;26931;43.498;-1.506;2022-10-16T07:09:42;18.10;97.60
34644;DHT22;26931;43.498;-1.506;2022-10-16T07:12:08;18.10;97.50
34644;DHT22;26931;43.498;-1.506;2022-10-16T07:14:34;18.20;97.50
34644;DHT22;26931;43.498;-1.506;2022-10-16T07:17:00;18.20;97.40
34644;DHT22;26931;43.498;-1.506;2022-10-16T07:19:26;18.30;97.40
34644;DHT22;26931;43.498;-1.506;2022-10-16T07:21:52;18.40;97.30
34644;DHT22;26931;43.498;-1.506;2022-10-16T07:24:18;18.50;97.20
34644;DHT22;26931;43.498;-1.506;2022-10-16T07:26:45;18.50;97.00
34644;DHT22;26931;43.498;-1.506;2022-10-16T07:29:14;18.60;97.00
34644;DHT22;26931;43.498;-1.506;2022-10-16T07:31:40;18.70;96.90
34644;DHT22;26931;43.498;-1.506;2022-10-16T07:34:06;18.70;96.80
34644;DHT22;26931;43.498;-1.506;2022-10-16T07:36:32;18.80;96.80
34644;DHT22;26931;43.498;-1.506;2022-10-16T07:38:58;18.80;96.70
34644;DHT22;26931;43.498;-1.506;2022-10-16T07:41:24;18.90;96.70
34644;DHT22;26931;43.498;-1.506;2022-10-16T07:43:52;18.90;96.70
34644;DHT22;26931;43.498;-1.506;2022-10-16T07:46:20;19.00;96.60
34644;DHT22;26931;43.498;-1.506;2022-10-16T07:48:46;19.00;96.60
34644;DHT22;26931;43.498;-1.506;2022-10-16T07:51:18;19.10;96.50
34644;DHT22;26931;43.498;-1.506;2022-10-16T07:53:44;19.10;96.50
34644;DHT22;26931;43.498;-1.506;2022-10-16T07:56:10;19.20;96.40
34644;DHT22;26931;43.498;-1.506;2022-10-16T07:58:37;19.30;96.40
34644;DHT22;26931;43.498;-1.506;2022-10-16T08:01:06;19.30;96.50
34644;DHT22;26931;43.498;-1.506;2022-10-16T08:03:32;19.30;96.60
34644;DHT22;26931;43.498;-1.506;2022-10-16T08:05:59;19.30;96.60
34644;DHT22;26931;43.498;-1.506;2022-10-16T08:08:25;19.40;96.70
34644;DHT22;26931;43.498;-1.506;2022-10-16T08:10:52;19.50;96.60
34644;DHT22;26931;43.498;-1.506;2022-10-16T08:13:18;19.60;96.50
34644;DHT22;26931;43.498;-1.506;2022-10-16T08:15:44;19.70;96.50
34644;DHT22;26931;43.498;-1.506;2022-10-16T08:18:12;19.70;96.50
34644;DHT22;26931;43.498;-1.506;2022-10-16T08:20:39;19.80;96.50
34644;DHT22;26931;43.498;-1.506;2022-10-16T08:23:05;19.90;96.50
34644;DHT22;26931;43.498;-1.506;2022-10-16T08:25:31;20.00;96.60
34644;DHT22;26931;43.498;-1.506;2022-10-16T08:27:57;20.00;96.60
34644;DHT22;26931;43.498;-1.506;2022-10-16T08:30:24;20.10;96.60
34644;DHT22;26931;43.498;-1.506;2022-10-16T08:32:50;20.10;96.50
34644;DHT22;26931;43.498;-1.506;2022-10-16T08:35:16;20.20;96.50
34644;DHT22;26931;43.498;-1.506;2022-10-16T08:37:42;20.20;96.40
34644;DHT22;26931;43.498;-1.506;2022-10-16T08:40:26;20.30;96.40
34644;DHT22;26931;43.498;-1.506;2022-10-16T08:48:53;20.70;96.40
34644;DHT22;26931;43.498;-1.506;2022-10-16T08:51:27;20.80;96.30
34644;DHT22;26931;43.498;-1.506;2022-10-16T08:53:56;20.90;96.30
34644;DHT22;26931;43.498;-1.506;2022-10-16T08:56:23;21.00;96.30
34644;DHT22;26931;43.498;-1.506;2022-10-16T08:58:50;21.10;96.10
34644;DHT22;26931;43.498;-1.506;2022-10-16T09:01:19;21.20;95.90
34644;DHT22;26931;43.498;-1.506;2022-10-16T09:04:07;21.30;95.60
34644;DHT22;26931;43.498;-1.506;2022-10-16T09:07:27;21.50;95.30
34644;DHT22;26931;43.498;-1.506;2022-10-16T09:15:25;21.80;94.50
34644;DHT22;26931;43.498;-1.506;2022-10-16T09:18:18;21.90;94.40
34644;DHT22;26931;43.498;-1.506;2022-10-16T09:20:53;22.00;94.10
34644;DHT22;26931;43.498;-1.506;2022-10-16T09:23:32;22.10;93.80
34644;DHT22;26931;43.498;-1.506;2022-10-16T09:26:00;22.10;93.60
34644;DHT22;26931;43.498;-1.506;2022-10-16T09:28:26;22.20;93.40
34644;DHT22;26931;43.498;-1.506;2022-10-16T09:30:52;22.30;93.10
34644;DHT22;26931;43.498;-1.506;2022-10-16T09:33:22;22.40;92.70
34644;DHT22;26931;43.498;-1.506;2022-10-16T09:35:54;22.50;92.50
34644;DHT22;26931;43.498;-1.506;2022-10-16T09:38:23;22.60;92.10
34644;DHT22;26931;43.498;-1.506;2022-10-16T09:40:49;22.70;91.90
34644;DHT22;26931;43.498;-1.506;2022-10-16T09:43:23;22.70;91.80
34644;DHT22;26931;43.498;-1.506;2022-10-16T09:46:01;22.80;91.60
34644;DHT22;26931;43.498;-1.506;2022-10-16T09:48:43;22.90;91.50
34644;DHT22;26931;43.498;-1.506;2022-10-16T09:51:25;23.00;91.40
34644;DHT22;26931;43.498;-1.506;2022-10-16T09:56:36;23.10;91.60
34644;DHT22;26931;43.498;-1.506;2022-10-16T09:59:15;23.20;91.70
34644;DHT22;26931;43.498;-1.506;2022-10-16T10:01:50;23.00;91.70
34644;DHT22;26931;43.498;-1.506;2022-10-16T10:04:18;23.00;91.70
34644;DHT22;26931;43.498;-1.506;2022-10-16T10:06:55;23.00;91.70
34644;DHT22;26931;43.498;-1.506;2022-10-16T10:12:00;23.20;91.60
34644;DHT22;26931;43.498;-1.506;2022-10-16T10:14:34;23.10;91.40
34644;DHT22;26931;43.498;-1.506;2022-10-16T10:27:50;23.50;91.50
34644;DHT22;26931;43.498;-1.506;2022-10-16T10:30:41;23.50;91.50
34644;DHT22;26931;43.498;-1.506;2022-10-16T10:39:03;23.60;91.00
34644;DHT22;26931;43.498;-1.506;2022-10-16T10:47:07;23.50;90.90
34644;DHT22;26931;43.498;-1.506;2022-10-16T10:52:38;23.50;91.00
34644;DHT22;26931;43.498;-1.506;2022-10-16T10:55:23;23.40;90.80
34644;DHT22;26931;43.498;-1.506;2022-10-16T11:01:14;23.50;90.50
34644;DHT22;26931;43.498;-1.506;2022-10-16T11:07:04;23.50;89.50
34644;DHT22;26931;43.498;-1.506;2022-10-16T11:09:36;23.60;89.30
34644;DHT22;26931;43.498;-1.506;2022-10-16T11:12:19;23.70;89.00
34644;DHT22;26931;43.498;-1.506;2022-10-16T11:15:15;23.80;88.40
34644;DHT22;26931;43.498;-1.506;2022-10-16T11:20:36;24.10;87.30
34644;DHT22;26931;43.498;-1.506;2022-10-16T11:26:14;24.30;86.70
34644;DHT22;26931;43.498;-1.506;2022-10-16T11:28:50;24.50;86.20
34644;DHT22;26931;43.498;-1.506;2022-10-16T11:31:36;24.70;85.70
34644;DHT22;26931;43.498;-1.506;2022-10-16T11:34:17;24.70;85.00
34644;DHT22;26931;43.498;-1.506;2022-10-16T11:36:53;24.80;84.80
34644;DHT22;26931;43.498;-1.506;2022-10-16T11:39:27;24.90;84.70
34644;DHT22;26931;43.498;-1.506;2022-10-16T11:41:55;24.90;84.20
34644;DHT22;26931;43.498;-1.506;2022-10-16T11:47:30;25.10;82.80
34644;DHT22;26931;43.498;-1.506;2022-10-16T11:53:14;25.10;82.10
34644;DHT22;26931;43.498;-1.506;2022-10-16T11:55:44;25.10;81.10
34644;DHT22;26931;43.498;-1.506;2022-10-16T11:58:20;25.10;80.20
34644;DHT22;26931;43.498;-1.506;2022-10-16T12:03:40;25.10;77.30
34644;DHT22;26931;43.498;-1.506;2022-10-16T12:06:34;25.10;76.00
34644;DHT22;26931;43.498;-1.506;2022-10-16T12:09:03;25.10;75.30
34644;DHT22;26931;43.498;-1.506;2022-10-16T12:16:50;25.10;73.20
34644;DHT22;26931;43.498;-1.506;2022-10-16T12:19:17;25.10;73.00
34644;DHT22;26931;43.498;-1.506;2022-10-16T12:21:44;25.20;72.30
34644;DHT22;26931;43.498;-1.506;2022-10-16T12:27:00;25.30;71.10
34644;DHT22;26931;43.498;-1.506;2022-10-16T12:29:41;25.50;71.10
34644;DHT22;26931;43.498;-1.506;2022-10-16T12:32:39;25.60;69.60
34644;DHT22;26931;43.498;-1.506;2022-10-16T12:35:28;25.70;68.80
34644;DHT22;26931;43.498;-1.506;2022-10-16T12:37:53;25.90;68.40
34644;DHT22;26931;43.498;-1.506;2022-10-16T12:40:28;25.70;67.60
34644;DHT22;26931;43.498;-1.506;2022-10-16T12:42:55;25.90;66.40
34644;DHT22;26931;43.498;-1.506;2022-10-16T12:45:31;25.80;65.20
34644;DHT22;26931;43.498;-1.506;2022-10-16T12:48:00;25.80;64.30
34644;DHT22;26931;43.498;-1.506;2022-10-16T12:50:35;25.90;64.10
34644;DHT22;26931;43.498;-1.506;2022-10-16T12:53:03;25.90;63.20
34644;DHT22;26931;43.498;-1.506;2022-10-16T12:55:45;26.00;63.00
34644;DHT22;26931;43.498;-1.506;2022-10-16T13:06:33;26.40;61.20
34644;DHT22;26931;43.498;-1.506;2022-10-16T13:11:50;26.30;60.30
34644;DHT22;26931;43.498;-1.506;2022-10-16T13:28:08;26.40;58.90
34644;DHT22;26931;43.498;-1.506;2022-10-16T13:30:52;26.40;58.60
34644;DHT22;26931;43.498;-1.506;2022-10-16T13:33:31;26.40;58.10
34644;DHT22;26931;43.498;-1.506;2022-10-16T13:35:58;26.40;58.10
34644;DHT22;26931;43.498;-1.506;2022-10-16T13:38:26;26.40;58.10
34644;DHT22;26931;43.498;-1.506;2022-10-16T13:41:05;26.40;57.80
34644;DHT22;26931;43.498;-1.506;2022-10-16T13:46:16;26.50;57.10
34644;DHT22;26931;43.498;-1.506;2022-10-16T13:48:44;26.50;57.00
34644;DHT22;26931;43.498;-1.506;2022-10-16T13:51:15;26.60;57.00
34644;DHT22;26931;43.498;-1.506;2022-10-16T13:53:43;26.60;56.80
34644;DHT22;26931;43.498;-1.506;2022-10-16T13:56:15;26.70;56.80
34644;DHT22;26931;43.498;-1.506;2022-10-16T13:58:41;26.70;56.50
34644;DHT22;26931;43.498;-1.506;2022-10-16T14:01:20;26.80;56.40
34644;DHT22;26931;43.498;-1.506;2022-10-16T14:03:49;26.90;56.50
34644;DHT22;26931;43.498;-1.506;2022-10-16T14:06:20;26.90;56.60
34644;DHT22;26931;43.498;-1.506;2022-10-16T14:09:09;26.80;56.40
34644;DHT22;26931;43.498;-1.506;2022-10-16T14:11:48;26.90;56.70
34644;DHT22;26931;43.498;-1.506;2022-10-16T14:14:15;26.80;56.90
34644;DHT22;26931;43.498;-1.506;2022-10-16T14:16:42;26.70;57.10
34644;DHT22;26931;43.498;-1.506;2022-10-16T14:19:22;26.70;57.10
34644;DHT22;26931;43.498;-1.506;2022-10-16T14:21:52;26.60;57.30
34644;DHT22;26931;43.498;-1.506;2022-10-16T14:26:57;26.50;57.20
34644;DHT22;26931;43.498;-1.506;2022-10-16T14:29:25;26.40;57.30
34644;DHT22;26931;43.498;-1.506;2022-10-16T14:31:59;26.40;57.20
34644;DHT22;26931;43.498;-1.506;2022-10-16T14:34:28;26.40;57.20
34644;DHT22;26931;43.498;-1.506;2022-10-16T14:36:56;26.40;57.30
34644;DHT22;26931;43.498;-1.506;2022-10-16T14:39:25;26.30;57.30
34644;DHT22;26931;43.498;-1.506;2022-10-16T14:41:52;26.40;57.50
34644;DHT22;26931;43.498;-1.506;2022-10-16T14:44:26;26.20;57.60
34644;DHT22;26931;43.498;-1.506;2022-10-16T14:46:53;26.20;57.60
34644;DHT22;26931;43.498;-1.506;2022-10-16T14:49:20;26.10;57.80
34644;DHT22;26931;43.498;-1.506;2022-10-16T14:51:47;26.20;57.90
34644;DHT22;26931;43.498;-1.506;2022-10-16T14:54:15;26.20;58.30
34644;DHT22;26931;43.498;-1.506;2022-10-16T14:56:52;26.20;57.80
34644;DHT22;26931;43.498;-1.506;2022-10-16T14:59:24;26.10;57.70
34644;DHT22;26931;43.498;-1.506;2022-10-16T15:01:51;26.10;57.90
34644;DHT22;26931;43.498;-1.506;2022-10-16T15:04:17;26.00;58.00
34644;DHT22;26931;43.498;-1.506;2022-10-16T15:06:44;26.10;58.10
34644;DHT22;26931;43.498;-1.506;2022-10-16T15:09:10;26.00;58.10
34644;DHT22;26931;43.498;-1.506;2022-10-16T15:11:36;26.00;58.70
34644;DHT22;26931;43.498;-1.506;2022-10-16T15:14:02;26.00;59.50
34644;DHT22;26931;43.498;-1.506;2022-10-16T15:16:30;25.90;60.20
34644;DHT22;26931;43.498;-1.506;2022-10-16T15:18:56;25.90;61.50
34644;DHT22;26931;43.498;-1.506;2022-10-16T15:21:27;25.80;62.20
34644;DHT22;26931;43.498;-1.506;2022-10-16T15:23:53;26.00;62.80
34644;DHT22;26931;43.498;-1.506;2022-10-16T15:26:19;25.80;63.00
34644;DHT22;26931;43.498;-1.506;2022-10-16T15:28:45;25.70;63.30
34644;DHT22;26931;43.498;-1.506;2022-10-16T15:31:11;25.70;63.70
34644;DHT22;26931;43.498;-1.506;2022-10-16T15:33:37;25.70;64.30
34644;DHT22;26931;43.498;-1.506;2022-10-16T15:36:04;25.70;65.00
34644;DHT22;26931;43.498;-1.506;2022-10-16T15:38:30;25.70;65.70
34644;DHT22;26931;43.498;-1.506;2022-10-16T15:40:56;25.70;66.20
34644;DHT22;26931;43.498;-1.506;2022-10-16T15:43:22;25.60;66.50
34644;DHT22;26931;43.498;-1.506;2022-10-16T15:46:00;25.60;66.60
34644;DHT22;26931;43.498;-1.506;2022-10-16T15:48:27;25.60;66.80
34644;DHT22;26931;43.498;-1.506;2022-10-16T15:50:54;25.60;67.60
34644;DHT22;26931;43.498;-1.506;2022-10-16T15:53:20;25.50;68.60
34644;DHT22;26931;43.498;-1.506;2022-10-16T15:55:46;25.70;69.30
34644;DHT22;26931;43.498;-1.506;2022-10-16T15:58:12;25.50;69.70
34644;DHT22;26931;43.498;-1.506;2022-10-16T16:00:38;25.40;70.50
34644;DHT22;26931;43.498;-1.506;2022-10-16T16:03:04;25.40;71.10
34644;DHT22;26931;43.498;-1.506;2022-10-16T16:05:30;25.30;71.10
34644;DHT22;26931;43.498;-1.506;2022-10-16T16:07:56;25.30;71.40
34644;DHT22;26931;43.498;-1.506;2022-10-16T16:10:23;25.30;71.80
34644;DHT22;26931;43.498;-1.506;2022-10-16T16:12:49;25.30;71.70
34644;DHT22;26931;43.498;-1.506;2022-10-16T16:15:20;25.30;71.70
34644;DHT22;26931;43.498;-1.506;2022-10-16T16:17:47;25.20;71.80
34644;DHT22;26931;43.498;-1.506;2022-10-16T16:20:13;25.20;72.30
34644;DHT22;26931;43.498;-1.506;2022-10-16T16:22:39;25.10;72.70
34644;DHT22;26931;43.498;-1.506;2022-10-16T16:25:06;25.10;72.80
34644;DHT22;26931;43.498;-1.506;2022-10-16T16:27:32;25.10;73.10
34644;DHT22;26931;43.498;-1.506;2022-10-16T16:30:05;25.00;73.70
34644;DHT22;26931;43.498;-1.506;2022-10-16T16:32:33;24.90;74.30
34644;DHT22;26931;43.498;-1.506;2022-10-16T16:35:00;24.90;74.90
34644;DHT22;26931;43.498;-1.506;2022-10-16T16:37:28;24.90;75.40
34644;DHT22;26931;43.498;-1.506;2022-10-16T16:39:57;24.80;75.60
34644;DHT22;26931;43.498;-1.506;2022-10-16T16:42:26;24.80;75.90
34644;DHT22;26931;43.498;-1.506;2022-10-16T16:44:52;24.70;76.20
34644;DHT22;26931;43.498;-1.506;2022-10-16T16:47:19;24.60;76.50
34644;DHT22;26931;43.498;-1.506;2022-10-16T16:49:45;24.60;76.80
34644;DHT22;26931;43.498;-1.506;2022-10-16T16:52:14;24.40;77.00
34644;DHT22;26931;43.498;-1.506;2022-10-16T16:54:40;24.60;77.30
34644;DHT22;26931;43.498;-1.506;2022-10-16T16:57:07;24.60;77.30
34644;DHT22;26931;43.498;-1.506;2022-10-16T16:59:33;24.50;77.40
34644;DHT22;26931;43.498;-1.506;2022-10-16T17:01:59;24.50;78.60
34644;DHT22;26931;43.498;-1.506;2022-10-16T17:04:26;24.50;78.30
34644;DHT22;26931;43.498;-1.506;2022-10-16T17:06:55;24.40;78.80
34644;DHT22;26931;43.498;-1.506;2022-10-16T17:09:22;24.30;79.20
34644;DHT22;26931;43.498;-1.506;2022-10-16T17:11:48;24.30;80.20
34644;DHT22;26931;43.498;-1.506;2022-10-16T17:14:14;24.30;79.90
34644;DHT22;26931;43.498;-1.506;2022-10-16T17:16:41;24.10;80.20
34644;DHT22;26931;43.498;-1.506;2022-10-16T17:19:13;24.20;80.60
34644;DHT22;26931;43.498;-1.506;2022-10-16T17:21:40;24.20;80.70